sensor_id;sensor_type;location;lat;lon;timestamp;P1;durP1;ratioP1;P2;durP2;ratioP2
13969;SDS011;7057;49.984;8.404;2024-01-15T00:01:47;26.07;;;13.93;;
13969;SDS011;7057;49.984;8.404;2024-01-15T00:04:15;25.83;;;13.67;;
13969;SDS011;7057;49.984;8.404;2024-01-15T00:06:42;26.70;;;13.37;;
13969;SDS011;7057;49.984;8.404;2024-01-15T00:09:10;29.53;;;15.23;;
13969;SDS011;7057;49.984;8.404;2024-01-15T00:11:39;32.87;;;15.20;;
13969;SDS011;7057;49.984;8.404;2024-01-15T00:14:07;28.37;;;14.77;;
13969;SDS011;7057;49.984;8.404;2024-01-15T00:16:36;26.23;;;13.67;;
13969;SDS011;7057;49.984;8.404;2024-01-15T00:19:04;33.77;;;16.53;;
13969;SDS011;7057;49.984;8.404;2024-01-15T00:21:31;30.20;;;14.63;;
13969;SDS011;7057;49.984;8.404;2024-01-15T00:23:59;30.93;;;15.00;;
13969;SDS011;7057;49.984;8.404;2024-01-15T00:26:26;28.23;;;15.10;;
13969;SDS011;7057;49.984;8.404;2024-01-15T00:28:54;29.23;;;15.27;;
13969;SDS011;7057;49.984;8.404;2024-01-15T00:31:21;32.90;;;15.50;;
13969;SDS011;7057;49.984;8.404;2024-01-15T00:33:50;33.67;;;16.10;;
13969;SDS011;7057;49.984;8.404;2024-01-15T00:36:18;28.67;;;14.10;;
13969;SDS011;7057;49.984;8.404;2024-01-15T00:38:45;31.60;;;16.50;;
13969;SDS011;7057;49.984;8.404;2024-01-15T00:41:13;32.67;;;15.77;;
13969;SDS011;7057;49.984;8.404;2024-01-15T00:43:40;27.03;;;11.53;;
13969;SDS011;7057;49.984;8.404;2024-01-15T00:46:08;32.17;;;16.77;;
13969;SDS011;7057;49.984;8.404;2024-01-15T00:48:34;32.13;;;15.53;;
13969;SDS011;7057;49.984;8.404;2024-01-15T00:51:04;33.10;;;16.03;;
13969;SDS011;7057;49.984;8.404;2024-01-15T00:53:31;31.87;;;16.30;;
13969;SDS011;7057;49.984;8.404;2024-01-15T00:55:59;34.17;;;17.20;;
13969;SDS011;7057;49.984;8.404;2024-01-15T00:58:27;32.20;;;15.93;;
13969;SDS011;7057;49.984;8.404;2024-01-15T01:00:54;31.03;;;14.70;;
13969;SDS011;7057;49.984;8.404;2024-01-15T01:03:22;29.03;;;13.93;;
13969;SDS011;7057;49.984;8.404;2024-01-15T01:05:49;30.43;;;15.47;;
13969;SDS011;7057;49.984;8.404;2024-01-15T01:08:18;34.03;;;16.33;;
13969;SDS011;7057;49.984;8.404;2024-01-15T01:10:45;33.03;;;16.27;;
13969;SDS011;7057;49.984;8.404;2024-01-15T01:13:13;28.30;;;15.20;;
13969;SDS011;7057;49.984;8.404;2024-01-15T01:15:40;32.13;;;15.53;;
13969;SDS011;7057;49.984;8.404;2024-01-15T01:18:08;27.73;;;13.83;;
13969;SDS011;7057;49.984;8.404;2024-01-15T01:20:35;27.87;;;15.07;;
13969;SDS011;7057;49.984;8.404;2024-01-15T01:23:03;28.77;;;13.80;;
13969;SDS011;7057;49.984;8.404;2024-01-15T01:25:32;30.47;;;14.73;;
13969;SDS011;7057;49.984;8.404;2024-01-15T01:27:59;33.67;;;15.30;;
13969;SDS011;7057;49.984;8.404;2024-01-15T01:30:27;25.80;;;12.20;;
13969;SDS011;7057;49.984;8.404;2024-01-15T01:32:54;30.87;;;14.53;;
13969;SDS011;7057;49.984;8.404;2024-01-15T01:35:22;28.60;;;13.73;;
13969;SDS011;7057;49.984;8.404;2024-01-15T01:37:49;33.53;;;13.97;;
13969;SDS011;7057;49.984;8.404;2024-01-15T01:40:17;24.30;;;11.63;;
13969;SDS011;7057;49.984;8.404;2024-01-15T01:42:46;30.40;;;13.00;;
13969;SDS011;7057;49.984;8.404;2024-01-15T01:45:14;26.17;;;14.17;;
13969;SDS011;7057;49.984;8.404;2024-01-15T01:47:41;27.70;;;16.13;;
13969;SDS011;7057;49.984;8.404;2024-01-15T01:50:09;30.27;;;15.10;;
13969;SDS011;7057;49.984;8.404;2024-01-15T01:52:37;20.83;;;10.20;;
13969;SDS011;7057;49.984;8.404;2024-01-15T01:55:04;25.17;;;12.83;;
13969;SDS011;7057;49.984;8.404;2024-01-15T01:57:33;29.13;;;14.50;;
13969;SDS011;7057;49.984;8.404;2024-01-15T02:00:03;24.47;;;13.17;;
13969;SDS011;7057;49.984;8.404;2024-01-15T02:02:32;29.83;;;13.93;;
13969;SDS011;7057;49.984;8.404;2024-01-15T02:04:59;28.37;;;15.00;;
13969;SDS011;7057;49.984;8.404;2024-01-15T02:07:27;27.67;;;13.97;;
13969;SDS011;7057;49.984;8.404;2024-01-15T02:09:54;25.97;;;14.17;;
13969;SDS011;7057;49.984;8.404;2024-01-15T02:12:22;30.27;;;14.50;;
13969;SDS011;7057;49.984;8.404;2024-01-15T02:14:49;28.30;;;13.70;;
13969;SDS011;7057;49.984;8.404;2024-01-15T02:17:18;30.83;;;15.20;;
13969;SDS011;7057;49.984;8.404;2024-01-15T02:19:45;27.67;;;14.47;;
13969;SDS011;7057;49.984;8.404;2024-01-15T02:22:13;29.17;;;13.57;;
13969;SDS011;7057;49.984;8.404;2024-01-15T02:24:42;30.97;;;15.27;;
13969;SDS011;7057;49.984;8.404;2024-01-15T02:27:09;26.50;;;13.43;;
13969;SDS011;7057;49.984;8.404;2024-01-15T02:29:37;31.77;;;14.90;;
13969;SDS011;7057;49.984;8.404;2024-01-15T02:32:04;26.97;;;13.57;;
13969;SDS011;7057;49.984;8.404;2024-01-15T02:34:32;27.83;;;14.53;;
13969;SDS011;7057;49.984;8.404;2024-01-15T02:37:00;29.00;;;13.23;;
13969;SDS011;7057;49.984;8.404;2024-01-15T02:39:27;26.60;;;12.50;;
13969;SDS011;7057;49.984;8.404;2024-01-15T02:41:56;29.90;;;14.57;;
13969;SDS011;7057;49.984;8.404;2024-01-15T02:44:24;25.93;;;13.60;;
13969;SDS011;7057;49.984;8.404;2024-01-15T02:46:51;24.07;;;12.30;;
13969;SDS011;7057;49.984;8.404;2024-01-15T02:49:19;23.87;;;12.37;;
13969;SDS011;7057;49.984;8.404;2024-01-15T02:51:46;24.17;;;13.50;;
13969;SDS011;7057;49.984;8.404;2024-01-15T02:54:14;26.37;;;13.37;;
13969;SDS011;7057;49.984;8.404;2024-01-15T02:56:41;24.93;;;12.87;;
13969;SDS011;7057;49.984;8.404;2024-01-15T02:59:10;23.70;;;12.53;;
13969;SDS011;7057;49.984;8.404;2024-01-15T03:01:37;25.07;;;12.40;;
13969;SDS011;7057;49.984;8.404;2024-01-15T03:04:05;25.53;;;13.07;;
13969;SDS011;7057;49.984;8.404;2024-01-15T03:06:32;22.07;;;12.77;;
13969;SDS011;7057;49.984;8.404;2024-01-15T03:09:00;21.43;;;11.27;;
13969;SDS011;7057;49.984;8.404;2024-01-15T03:11:29;23.23;;;12.27;;
13969;SDS011;7057;49.984;8.404;2024-01-15T03:13:56;23.93;;;11.43;;
13969;SDS011;7057;49.984;8.404;2024-01-15T03:16:25;24.80;;;12.30;;
13969;SDS011;7057;49.984;8.404;2024-01-15T03:18:52;25.13;;;14.10;;
13969;SDS011;7057;49.984;8.404;2024-01-15T03:21:20;22.93;;;11.30;;
13969;SDS011;7057;49.984;8.404;2024-01-15T03:23:47;22.97;;;12.87;;
13969;SDS011;7057;49.984;8.404;2024-01-15T03:26:15;21.57;;;12.60;;
13969;SDS011;7057;49.984;8.404;2024-01-15T03:28:42;23.53;;;12.23;;
13969;SDS011;7057;49.984;8.404;2024-01-15T03:31:10;21.57;;;11.83;;
13969;SDS011;7057;49.984;8.404;2024-01-15T03:33:39;14.33;;;7.00;;
13969;SDS011;7057;49.984;8.404;2024-01-15T03:36:06;23.93;;;11.83;;
13969;SDS011;7057;49.984;8.404;2024-01-15T03:38:34;24.67;;;12.20;;
13969;SDS011;7057;49.984;8.404;2024-01-15T03:41:01;12.00;;;6.43;;
13969;SDS011;7057;49.984;8.404;2024-01-15T03:43:28;19.47;;;10.00;;
13969;SDS011;7057;49.984;8.404;2024-01-15T03:45:56;27.07;;;11.50;;
13969;SDS011;7057;49.984;8.404;2024-01-15T03:48:23;25.30;;;13.07;;
13969;SDS011;7057;49.984;8.404;2024-01-15T03:50:52;23.33;;;12.50;;
13969;SDS011;7057;49.984;8.404;2024-01-15T03:53:19;23.77;;;11.57;;
13969;SDS011;7057;49.984;8.404;2024-01-15T03:55:47;26.47;;;12.63;;
13969;SDS011;7057;49.984;8.404;2024-01-15T03:58:14;23.43;;;12.33;;
13969;SDS011;7057;49.984;8.404;2024-01-15T04:00:42;25.60;;;12.23;;
13969;SDS011;7057;49.984;8.404;2024-01-15T04:03:09;20.63;;;12.60;;
13969;SDS011;7057;49.984;8.404;2024-01-15T04:05:37;24.47;;;11.00;;
13969;SDS011;7057;49.984;8.404;2024-01-15T04:08:06;24.17;;;12.40;;
13969;SDS011;7057;49.984;8.404;2024-01-15T04:10:34;24.27;;;12.13;;
13969;SDS011;7057;49.984;8.404;2024-01-15T04:13:01;22.33;;;12.00;;
13969;SDS011;7057;49.984;8.404;2024-01-15T04:15:29;22.73;;;12.80;;
13969;SDS011;7057;49.984;8.404;2024-01-15T04:17:56;24.67;;;11.70;;
13969;SDS011;7057;49.984;8.404;2024-01-15T04:20:24;23.97;;;12.60;;
13969;SDS011;7057;49.984;8.404;2024-01-15T04:22:51;24.67;;;12.43;;
13969;SDS011;7057;49.984;8.404;2024-01-15T04:25:20;24.10;;;11.27;;
13969;SDS011;7057;49.984;8.404;2024-01-15T04:27:48;21.50;;;11.43;;
13969;SDS011;7057;49.984;8.404;2024-01-15T04:30:15;24.17;;;13.43;;
13969;SDS011;7057;49.984;8.404;2024-01-15T04:32:43;21.97;;;11.33;;
13969;SDS011;7057;49.984;8.404;2024-01-15T04:35:10;21.67;;;11.70;;
13969;SDS011;7057;49.984;8.404;2024-01-15T04:37:39;22.57;;;12.33;;
13969;SDS011;7057;49.984;8.404;2024-01-15T04:40:07;26.33;;;12.13;;
13969;SDS011;7057;49.984;8.404;2024-01-15T04:42:35;26.17;;;12.30;;
13969;SDS011;7057;49.984;8.404;2024-01-15T04:45:03;24.33;;;12.13;;
13969;SDS011;7057;49.984;8.404;2024-01-15T04:47:31;20.80;;;10.53;;
13969;SDS011;7057;49.984;8.404;2024-01-15T04:49:59;23.77;;;12.00;;
13969;SDS011;7057;49.984;8.404;2024-01-15T04:52:26;23.57;;;12.37;;
13969;SDS011;7057;49.984;8.404;2024-01-15T04:54:54;23.33;;;11.90;;
13969;SDS011;7057;49.984;8.404;2024-01-15T04:57:21;20.27;;;12.30;;
13969;SDS011;7057;49.984;8.404;2024-01-15T04:59:50;24.93;;;13.13;;
13969;SDS011;7057;49.984;8.404;2024-01-15T05:02:17;23.33;;;12.67;;
13969;SDS011;7057;49.984;8.404;2024-01-15T05:04:45;23.20;;;13.10;;
13969;SDS011;7057;49.984;8.404;2024-01-15T05:07:12;23.87;;;11.93;;
13969;SDS011;7057;49.984;8.404;2024-01-15T05:09:40;23.07;;;12.47;;
13969;SDS011;7057;49.984;8.404;2024-01-15T05:12:07;28.77;;;13.67;;
13969;SDS011;7057;49.984;8.404;2024-01-15T05:14:35;23.10;;;13.27;;
13969;SDS011;7057;49.984;8.404;2024-01-15T05:17:04;27.83;;;15.33;;
13969;SDS011;7057;49.984;8.404;2024-01-15T05:19:31;26.00;;;13.60;;
13969;SDS011;7057;49.984;8.404;2024-01-15T05:21:59;23.30;;;12.90;;
13969;SDS011;7057;49.984;8.404;2024-01-15T05:24:26;23.57;;;11.97;;
13969;SDS011;7057;49.984;8.404;2024-01-15T05:26:54;28.57;;;14.53;;
13969;SDS011;7057;49.984;8.404;2024-01-15T05:29:21;26.53;;;13.00;;
13969;SDS011;7057;49.984;8.404;2024-01-15T05:31:48;26.33;;;12.83;;
13969;SDS011;7057;49.984;8.404;2024-01-15T05:34:17;23.40;;;12.33;;
13969;SDS011;7057;49.984;8.404;2024-01-15T05:36:45;28.80;;;14.27;;
13969;SDS011;7057;49.984;8.404;2024-01-15T05:39:13;27.50;;;14.87;;
13969;SDS011;7057;49.984;8.404;2024-01-15T05:41:40;26.10;;;13.03;;
13969;SDS011;7057;49.984;8.404;2024-01-15T05:44:08;24.47;;;13.53;;
13969;SDS011;7057;49.984;8.404;2024-01-15T05:46:36;27.47;;;14.67;;
13969;SDS011;7057;49.984;8.404;2024-01-15T05:49:03;23.13;;;12.23;;
13969;SDS011;7057;49.984;8.404;2024-01-15T05:51:32;30.23;;;14.20;;
13969;SDS011;7057;49.984;8.404;2024-01-15T05:54:00;32.03;;;14.03;;
13969;SDS011;7057;49.984;8.404;2024-01-15T05:56:27;28.50;;;13.73;;
13969;SDS011;7057;49.984;8.404;2024-01-15T05:58:54;26.37;;;14.63;;
13969;SDS011;7057;49.984;8.404;2024-01-15T06:01:22;29.10;;;14.50;;
13969;SDS011;7057;49.984;8.404;2024-01-15T06:03:49;23.70;;;13.27;;
13969;SDS011;7057;49.984;8.404;2024-01-15T06:06:17;27.20;;;13.83;;
13969;SDS011;7057;49.984;8.404;2024-01-15T06:08:46;25.10;;;14.37;;
13969;SDS011;7057;49.984;8.404;2024-01-15T06:11:13;25.43;;;13.43;;
13969;SDS011;7057;49.984;8.404;2024-01-15T06:13:41;26.67;;;14.47;;
13969;SDS011;7057;49.984;8.404;2024-01-15T06:16:13;26.43;;;13.87;;
13969;SDS011;7057;49.984;8.404;2024-01-15T06:18:41;28.03;;;14.63;;
13969;SDS011;7057;49.984;8.404;2024-01-15T06:21:09;25.20;;;12.77;;
13969;SDS011;7057;49.984;8.404;2024-01-15T06:23:38;23.93;;;12.10;;
13969;SDS011;7057;49.984;8.404;2024-01-15T06:26:07;25.13;;;13.53;;
13969;SDS011;7057;49.984;8.404;2024-01-15T06:28:34;22.93;;;13.03;;
13969;SDS011;7057;49.984;8.404;2024-01-15T06:31:02;23.77;;;13.13;;
13969;SDS011;7057;49.984;8.404;2024-01-15T06:33:31;23.67;;;11.67;;
13969;SDS011;7057;49.984;8.404;2024-01-15T06:35:58;24.07;;;12.13;;
13969;SDS011;7057;49.984;8.404;2024-01-15T06:38:26;23.10;;;13.00;;
13969;SDS011;7057;49.984;8.404;2024-01-15T06:40:53;24.80;;;12.93;;
13969;SDS011;7057;49.984;8.404;2024-01-15T06:43:22;22.37;;;12.37;;
13969;SDS011;7057;49.984;8.404;2024-01-15T06:45:50;22.23;;;13.37;;
13969;SDS011;7057;49.984;8.404;2024-01-15T06:48:17;24.57;;;13.30;;
13969;SDS011;7057;49.984;8.404;2024-01-15T06:50:45;28.00;;;13.60;;
13969;SDS011;7057;49.984;8.404;2024-01-15T06:53:12;27.57;;;13.80;;
13969;SDS011;7057;49.984;8.404;2024-01-15T06:55:40;25.80;;;14.17;;
13969;SDS011;7057;49.984;8.404;2024-01-15T06:58:07;25.43;;;14.67;;
13969;SDS011;7057;49.984;8.404;2024-01-15T07:00:36;26.20;;;13.97;;
13969;SDS011;7057;49.984;8.404;2024-01-15T07:03:04;26.60;;;14.23;;
13969;SDS011;7057;49.984;8.404;2024-01-15T07:05:31;23.43;;;13.17;;
13969;SDS011;7057;49.984;8.404;2024-01-15T07:07:59;23.67;;;13.47;;
13969;SDS011;7057;49.984;8.404;2024-01-15T07:10:26;25.23;;;13.03;;
13969;SDS011;7057;49.984;8.404;2024-01-15T07:12:54;26.50;;;14.73;;
13969;SDS011;7057;49.984;8.404;2024-01-15T07:15:21;27.03;;;14.53;;
13969;SDS011;7057;49.984;8.404;2024-01-15T07:17:50;28.03;;;14.83;;
13969;SDS011;7057;49.984;8.404;2024-01-15T07:20:18;24.40;;;14.07;;
13969;SDS011;7057;49.984;8.404;2024-01-15T07:22:46;25.33;;;14.40;;
13969;SDS011;7057;49.984;8.404;2024-01-15T07:25:13;26.50;;;14.53;;
13969;SDS011;7057;49.984;8.404;2024-01-15T07:27:41;29.87;;;14.90;;
13969;SDS011;7057;49.984;8.404;2024-01-15T07:30:10;26.83;;;13.60;;
13969;SDS011;7057;49.984;8.404;2024-01-15T07:32:38;24.90;;;13.47;;
13969;SDS011;7057;49.984;8.404;2024-01-15T07:35:07;27.00;;;13.47;;
13969;SDS011;7057;49.984;8.404;2024-01-15T07:37:35;25.77;;;12.43;;
13969;SDS011;7057;49.984;8.404;2024-01-15T07:40:03;26.47;;;13.97;;
13969;SDS011;7057;49.984;8.404;2024-01-15T07:42:31;26.87;;;14.83;;
13969;SDS011;7057;49.984;8.404;2024-01-15T07:44:59;25.60;;;14.10;;
13969;SDS011;7057;49.984;8.404;2024-01-15T07:47:27;26.80;;;14.93;;
13969;SDS011;7057;49.984;8.404;2024-01-15T07:49:54;28.83;;;15.03;;
13969;SDS011;7057;49.984;8.404;2024-01-15T07:52:23;29.67;;;15.20;;
13969;SDS011;7057;49.984;8.404;2024-01-15T07:54:51;25.73;;;12.83;;
13969;SDS011;7057;49.984;8.404;2024-01-15T07:57:18;32.67;;;15.80;;
13969;SDS011;7057;49.984;8.404;2024-01-15T07:59:46;30.13;;;14.90;;
13969;SDS011;7057;49.984;8.404;2024-01-15T08:02:13;29.17;;;15.77;;
13969;SDS011;7057;49.984;8.404;2024-01-15T08:04:41;27.20;;;14.30;;
13969;SDS011;7057;49.984;8.404;2024-01-15T08:07:08;24.90;;;12.93;;
13969;SDS011;7057;49.984;8.404;2024-01-15T08:09:37;25.77;;;14.77;;
13969;SDS011;7057;49.984;8.404;2024-01-15T08:12:05;25.13;;;14.43;;
13969;SDS011;7057;49.984;8.404;2024-01-15T08:14:32;26.47;;;13.33;;
13969;SDS011;7057;49.984;8.404;2024-01-15T08:17:00;23.90;;;13.90;;
13969;SDS011;7057;49.984;8.404;2024-01-15T08:19:27;22.33;;;13.30;;
13969;SDS011;7057;49.984;8.404;2024-01-15T08:21:55;24.30;;;13.70;;
13969;SDS011;7057;49.984;8.404;2024-01-15T08:24:22;26.20;;;14.30;;
13969;SDS011;7057;49.984;8.404;2024-01-15T08:26:51;26.27;;;15.20;;
13969;SDS011;7057;49.984;8.404;2024-01-15T08:29:18;24.87;;;14.20;;
13969;SDS011;7057;49.984;8.404;2024-01-15T08:31:46;24.10;;;13.07;;
13969;SDS011;7057;49.984;8.404;2024-01-15T08:34:14;21.57;;;12.23;;
13969;SDS011;7057;49.984;8.404;2024-01-15T08:36:41;21.87;;;13.50;;
13969;SDS011;7057;49.984;8.404;2024-01-15T08:39:08;23.63;;;13.37;;
13969;SDS011;7057;49.984;8.404;2024-01-15T08:41:36;25.27;;;14.27;;
13969;SDS011;7057;49.984;8.404;2024-01-15T08:44:05;22.80;;;12.60;;
13969;SDS011;7057;49.984;8.404;2024-01-15T08:46:33;24.47;;;14.30;;
13969;SDS011;7057;49.984;8.404;2024-01-15T08:49:00;27.07;;;14.60;;
13969;SDS011;7057;49.984;8.404;2024-01-15T08:51:28;23.63;;;13.63;;
13969;SDS011;7057;49.984;8.404;2024-01-15T08:53:56;20.90;;;12.30;;
13969;SDS011;7057;49.984;8.404;2024-01-15T08:56:24;26.63;;;14.60;;
13969;SDS011;7057;49.984;8.404;2024-01-15T08:58:52;23.93;;;12.97;;
13969;SDS011;7057;49.984;8.404;2024-01-15T09:01:21;22.50;;;12.70;;
13969;SDS011;7057;49.984;8.404;2024-01-15T09:03:49;18.53;;;11.40;;
13969;SDS011;7057;49.984;8.404;2024-01-15T09:06:17;22.73;;;13.40;;
13969;SDS011;7057;49.984;8.404;2024-01-15T09:08:46;20.97;;;12.33;;
13969;SDS011;7057;49.984;8.404;2024-01-15T09:11:13;20.63;;;12.17;;
13969;SDS011;7057;49.984;8.404;2024-01-15T09:13:41;22.70;;;12.00;;
13969;SDS011;7057;49.984;8.404;2024-01-15T09:16:08;22.43;;;13.63;;
13969;SDS011;7057;49.984;8.404;2024-01-15T09:18:37;22.40;;;13.47;;
13969;SDS011;7057;49.984;8.404;2024-01-15T09:21:04;23.50;;;13.30;;
13969;SDS011;7057;49.984;8.404;2024-01-15T09:23:32;21.37;;;11.10;;
13969;SDS011;7057;49.984;8.404;2024-01-15T09:25:59;21.07;;;11.87;;
13969;SDS011;7057;49.984;8.404;2024-01-15T09:28:27;20.83;;;11.83;;
13969;SDS011;7057;49.984;8.404;2024-01-15T09:30:55;23.43;;;13.93;;
13969;SDS011;7057;49.984;8.404;2024-01-15T09:33:22;19.43;;;11.97;;
13969;SDS011;7057;49.984;8.404;2024-01-15T09:35:51;20.70;;;13.27;;
13969;SDS011;7057;49.984;8.404;2024-01-15T09:38:19;21.97;;;13.47;;
13969;SDS011;7057;49.984;8.404;2024-01-15T09:40:47;22.00;;;13.10;;
13969;SDS011;7057;49.984;8.404;2024-01-15T09:43:14;20.10;;;11.43;;
13969;SDS011;7057;49.984;8.404;2024-01-15T09:45:42;18.97;;;11.40;;
13969;SDS011;7057;49.984;8.404;2024-01-15T09:48:10;21.63;;;12.87;;
13969;SDS011;7057;49.984;8.404;2024-01-15T09:50:38;20.77;;;13.03;;
13969;SDS011;7057;49.984;8.404;2024-01-15T09:53:06;21.57;;;13.57;;
13969;SDS011;7057;49.984;8.404;2024-01-15T09:55:35;20.43;;;12.43;;
13969;SDS011;7057;49.984;8.404;2024-01-15T09:58:03;23.00;;;13.80;;
13969;SDS011;7057;49.984;8.404;2024-01-15T10:00:31;21.13;;;12.93;;
13969;SDS011;7057;49.984;8.404;2024-01-15T10:02:59;19.00;;;11.77;;
13969;SDS011;7057;49.984;8.404;2024-01-15T10:05:26;20.47;;;12.83;;
13969;SDS011;7057;49.984;8.404;2024-01-15T10:07:54;21.63;;;13.07;;
13969;SDS011;7057;49.984;8.404;2024-01-15T10:10:23;21.17;;;13.47;;
13969;SDS011;7057;49.984;8.404;2024-01-15T10:12:51;20.53;;;12.73;;
13969;SDS011;7057;49.984;8.404;2024-01-15T10:15:21;20.80;;;13.50;;
13969;SDS011;7057;49.984;8.404;2024-01-15T10:17:50;20.07;;;13.10;;
13969;SDS011;7057;49.984;8.404;2024-01-15T10:20:17;19.87;;;12.13;;
13969;SDS011;7057;49.984;8.404;2024-01-15T10:22:45;18.33;;;12.00;;
13969;SDS011;7057;49.984;8.404;2024-01-15T10:25:13;18.37;;;12.30;;
13969;SDS011;7057;49.984;8.404;2024-01-15T10:27:42;17.33;;;11.93;;
13969;SDS011;7057;49.984;8.404;2024-01-15T10:30:09;18.97;;;11.80;;
13969;SDS011;7057;49.984;8.404;2024-01-15T10:32:39;18.93;;;13.03;;
13969;SDS011;7057;49.984;8.404;2024-01-15T10:35:07;19.50;;;12.80;;
13969;SDS011;7057;49.984;8.404;2024-01-15T10:37:35;20.70;;;12.50;;
13969;SDS011;7057;49.984;8.404;2024-01-15T10:40:02;20.77;;;12.93;;
13969;SDS011;7057;49.984;8.404;2024-01-15T10:42:31;18.03;;;9.70;;
13969;SDS011;7057;49.984;8.404;2024-01-15T10:45:00;19.83;;;12.80;;
13969;SDS011;7057;49.984;8.404;2024-01-15T10:47:28;19.53;;;12.57;;
13969;SDS011;7057;49.984;8.404;2024-01-15T10:49:56;21.63;;;13.47;;
13969;SDS011;7057;49.984;8.404;2024-01-15T10:52:23;20.70;;;12.73;;
13969;SDS011;7057;49.984;8.404;2024-01-15T10:54:51;18.63;;;12.43;;
13969;SDS011;7057;49.984;8.404;2024-01-15T10:57:20;18.97;;;12.27;;
13969;SDS011;7057;49.984;8.404;2024-01-15T10:59:48;16.43;;;10.23;;
13969;SDS011;7057;49.984;8.404;2024-01-15T11:02:17;16.50;;;11.57;;
13969;SDS011;7057;49.984;8.404;2024-01-15T11:04:45;16.40;;;11.13;;
13969;SDS011;7057;49.984;8.404;2024-01-15T11:07:12;20.47;;;12.33;;
13969;SDS011;7057;49.984;8.404;2024-01-15T11:09:40;17.90;;;11.80;;
13969;SDS011;7057;49.984;8.404;2024-01-15T11:12:09;17.73;;;12.17;;
13969;SDS011;7057;49.984;8.404;2024-01-15T11:14:40;17.47;;;12.40;;
13969;SDS011;7057;49.984;8.404;2024-01-15T11:17:09;18.57;;;11.87;;
13969;SDS011;7057;49.984;8.404;2024-01-15T11:19:38;18.53;;;11.80;;
13969;SDS011;7057;49.984;8.404;2024-01-15T11:22:09;17.77;;;11.77;;
13969;SDS011;7057;49.984;8.404;2024-01-15T11:24:38;17.33;;;10.80;;
13969;SDS011;7057;49.984;8.404;2024-01-15T11:27:06;16.73;;;11.60;;
13969;SDS011;7057;49.984;8.404;2024-01-15T11:29:34;17.03;;;10.93;;
13969;SDS011;7057;49.984;8.404;2024-01-15T11:32:03;17.13;;;10.90;;
13969;SDS011;7057;49.984;8.404;2024-01-15T11:37:20;15.90;;;9.53;;
13969;SDS011;7057;49.984;8.404;2024-01-15T11:39:50;14.43;;;9.30;;
13969;SDS011;7057;49.984;8.404;2024-01-15T11:42:19;15.70;;;10.70;;
13969;SDS011;7057;49.984;8.404;2024-01-15T11:44:47;14.90;;;10.13;;
13969;SDS011;7057;49.984;8.404;2024-01-15T11:47:15;14.80;;;10.33;;
13969;SDS011;7057;49.984;8.404;2024-01-15T11:49:57;15.37;;;10.93;;
13969;SDS011;7057;49.984;8.404;2024-01-15T11:52:26;17.60;;;9.93;;
13969;SDS011;7057;49.984;8.404;2024-01-15T11:54:59;16.17;;;10.67;;
13969;SDS011;7057;49.984;8.404;2024-01-15T11:57:31;16.80;;;10.47;;
13969;SDS011;7057;49.984;8.404;2024-01-15T11:59:59;16.40;;;10.63;;
13969;SDS011;7057;49.984;8.404;2024-01-15T12:02:29;14.07;;;10.40;;
13969;SDS011;7057;49.984;8.404;2024-01-15T12:04:56;13.67;;;10.40;;
13969;SDS011;7057;49.984;8.404;2024-01-15T12:07:24;14.47;;;10.40;;
13969;SDS011;7057;49.984;8.404;2024-01-15T12:09:53;14.30;;;9.63;;
13969;SDS011;7057;49.984;8.404;2024-01-15T12:12:21;14.63;;;9.00;;
13969;SDS011;7057;49.984;8.404;2024-01-15T12:14:51;12.53;;;8.43;;
13969;SDS011;7057;49.984;8.404;2024-01-15T12:17:19;14.37;;;10.20;;
13969;SDS011;7057;49.984;8.404;2024-01-15T12:19:46;12.47;;;7.67;;
13969;SDS011;7057;49.984;8.404;2024-01-15T12:22:14;13.03;;;8.23;;
13969;SDS011;7057;49.984;8.404;2024-01-15T12:24:41;11.40;;;8.90;;
13969;SDS011;7057;49.984;8.404;2024-01-15T12:27:10;13.10;;;8.57;;
13969;SDS011;7057;49.984;8.404;2024-01-15T12:29:38;12.87;;;9.20;;
13969;SDS011;7057;49.984;8.404;2024-01-15T12:32:05;12.83;;;8.60;;
13969;SDS011;7057;49.984;8.404;2024-01-15T12:34:33;12.00;;;8.40;;
13969;SDS011;7057;49.984;8.404;2024-01-15T12:37:01;14.87;;;8.53;;
13969;SDS011;7057;49.984;8.404;2024-01-15T12:39:28;14.50;;;9.37;;
13969;SDS011;7057;49.984;8.404;2024-01-15T12:41:57;13.33;;;8.23;;
13969;SDS011;7057;49.984;8.404;2024-01-15T12:44:26;13.13;;;9.10;;
13969;SDS011;7057;49.984;8.404;2024-01-15T12:46:54;10.90;;;7.60;;
13969;SDS011;7057;49.984;8.404;2024-01-15T12:49:21;12.97;;;8.30;;
13969;SDS011;7057;49.984;8.404;2024-01-15T12:51:52;11.27;;;8.07;;
13969;SDS011;7057;49.984;8.404;2024-01-15T12:54:19;12.60;;;8.67;;
13969;SDS011;7057;49.984;8.404;2024-01-15T12:56:47;12.63;;;8.03;;
13969;SDS011;7057;49.984;8.404;2024-01-15T12:59:14;12.17;;;7.67;;
13969;SDS011;7057;49.984;8.404;2024-01-15T13:01:43;13.57;;;8.90;;
13969;SDS011;7057;49.984;8.404;2024-01-15T13:04:11;12.27;;;7.80;;
13969;SDS011;7057;49.984;8.404;2024-01-15T13:06:38;14.43;;;8.77;;
13969;SDS011;7057;49.984;8.404;2024-01-15T13:09:06;12.27;;;7.17;;
13969;SDS011;7057;49.984;8.404;2024-01-15T13:11:35;10.90;;;7.13;;
13969;SDS011;7057;49.984;8.404;2024-01-15T13:14:03;11.27;;;6.03;;
13969;SDS011;7057;49.984;8.404;2024-01-15T13:16:30;12.07;;;7.30;;
13969;SDS011;7057;49.984;8.404;2024-01-15T13:18:59;8.87;;;6.70;;
13969;SDS011;7057;49.984;8.404;2024-01-15T13:21:29;9.33;;;6.40;;
13969;SDS011;7057;49.984;8.404;2024-01-15T13:23:56;11.43;;;7.77;;
13969;SDS011;7057;49.984;8.404;2024-01-15T13:26:24;10.37;;;7.33;;
13969;SDS011;7057;49.984;8.404;2024-01-15T13:28:51;10.90;;;6.73;;
13969;SDS011;7057;49.984;8.404;2024-01-15T13:31:19;11.83;;;7.73;;
13969;SDS011;7057;49.984;8.404;2024-01-15T13:33:47;11.70;;;7.07;;
13969;SDS011;7057;49.984;8.404;2024-01-15T13:36:15;13.20;;;7.43;;
13969;SDS011;7057;49.984;8.404;2024-01-15T13:38:43;10.63;;;7.03;;
13969;SDS011;7057;49.984;8.404;2024-01-15T13:41:10;9.83;;;6.47;;
13969;SDS011;7057;49.984;8.404;2024-01-15T13:43:38;9.67;;;6.43;;
13969;SDS011;7057;49.984;8.404;2024-01-15T13:46:05;10.47;;;6.50;;
13969;SDS011;7057;49.984;8.404;2024-01-15T13:48:33;10.57;;;6.87;;
13969;SDS011;7057;49.984;8.404;2024-01-15T13:51:00;9.47;;;6.77;;
13969;SDS011;7057;49.984;8.404;2024-01-15T13:53:29;9.47;;;7.03;;
13969;SDS011;7057;49.984;8.404;2024-01-15T13:55:57;12.07;;;6.93;;
13969;SDS011;7057;49.984;8.404;2024-01-15T13:58:24;7.80;;;5.70;;
13969;SDS011;7057;49.984;8.404;2024-01-15T14:00:52;12.83;;;7.00;;
13969;SDS011;7057;49.984;8.404;2024-01-15T14:03:19;11.20;;;6.53;;
13969;SDS011;7057;49.984;8.404;2024-01-15T14:05:47;10.13;;;6.17;;
13969;SDS011;7057;49.984;8.404;2024-01-15T14:08:14;11.27;;;7.00;;
13969;SDS011;7057;49.984;8.404;2024-01-15T14:10:43;11.50;;;6.43;;
13969;SDS011;7057;49.984;8.404;2024-01-15T14:13:11;8.60;;;6.70;;
13969;SDS011;7057;49.984;8.404;2024-01-15T14:15:38;9.33;;;5.43;;
13969;SDS011;7057;49.984;8.404;2024-01-15T14:18:06;11.73;;;6.67;;
13969;SDS011;7057;49.984;8.404;2024-01-15T14:20:34;10.13;;;6.60;;
13969;SDS011;7057;49.984;8.404;2024-01-15T14:23:01;9.50;;;6.07;;
13969;SDS011;7057;49.984;8.404;2024-01-15T14:25:29;10.83;;;6.73;;
13969;SDS011;7057;49.984;8.404;2024-01-15T14:27:57;7.30;;;4.43;;
13969;SDS011;7057;49.984;8.404;2024-01-15T14:30:25;10.30;;;6.07;;
13969;SDS011;7057;49.984;8.404;2024-01-15T14:32:52;13.93;;;6.47;;
13969;SDS011;7057;49.984;8.404;2024-01-15T14:35:20;8.27;;;4.67;;
13969;SDS011;7057;49.984;8.404;2024-01-15T14:37:48;10.07;;;5.70;;
13969;SDS011;7057;49.984;8.404;2024-01-15T14:40:15;7.73;;;5.30;;
13969;SDS011;7057;49.984;8.404;2024-01-15T14:42:43;8.10;;;4.80;;
13969;SDS011;7057;49.984;8.404;2024-01-15T14:45:12;9.70;;;5.70;;